Flugplatz Lübeck-Blankensee (EDHL)

Hier findest Du alle Informationen zum Flugplatz Lübeck-Blankensee (EDHL).

Informationen für Piloten zum Flugplatz Lübeck-Blankensee

Hier findest Du alle relevanten Informationen, die Du als Pilot benötigst, um Lübeck-Blankensee anzufliegen.

Flugplatz: Lübeck-Blankensee ICAO-Code: EDHL
Frequenz Turm: 128,700 Mhz GAFOR Gebiet: 4
Frequenz Ground: 128,700 Mhz Mogas: nein
Platzrunde: N 0 ft Landegebühr: -
Platzhöhe: - Sunrise: 04:05 Uhr UTC
Pisten: 07/25 - 1.922 m x 60 m, ASPH Sunset: 18:26 Uhr UTC

Flugwetter am Flugplatz Lübeck-Blankensee

Die METAR Information stammen aus EDHL.

METAR Code:
2019/03/11 17:50
EDHL 111750Z 27002KT 9999 FEW019 03/M03 Q1013

Temperatur: 8,0 °C Niederschlag: - Wind: 8,0 kt
Temperatur (min.): 6,1 °C Luftdruck: 1032 hPa Windrichtung: 60 °
Temperatur (max.): 9,4 °C Luftfeuchtigkeit: 75 % Bewölkung: -

Flugschulen am Flugplatz Lübeck-Blankensee

Am Flugplatz Lübeck-Blankensee gibt es 2 Flugschulen.

Benachbarte Flugplätze und Flugschulen

Es gibt 5 weitere Flugplätze in einem Umkreis von 50 km um den Flugplatz Lübeck-Blankensee.

Jetzt anmelden

Passwort vergessen

Umfrage Archiv

Welche Art von Theorieunterricht würde Dir am ehesten zusagen?

Frontalunterricht
64.2 %
Selbststudium
35.8 %
Stimmen: 352 | Diskussion
Anzeige: Roland Aircraft
Statistik Alle Mitglieder

Aktuell sind 41 Besucher online, davon 1 Mitglied und 40 Gäste.


Mitglieder online:
hob 

Anzeige: VFR Sprechfunk Simulator


Anzeige: Pocket FMS